Time;durP1;ratioP1;P1;durP2;ratioP2;P2;SDS_P1;SDS_P2;PMS_P1;PMS_P2;Temp;Humidity;BMP_temperature;BMP_pressure;BME280_temperature;BME280_humidity;BME280_pressure;Samples;Min_cycle;Max_cycle;Signal;HPM_P1;HPM_P2
2023/08/13 00:01:39;;;;;;;3.67;3.38;;;23.20;99.90;;;;;;5022101;28;20249;-74
2023/08/13 00:04:06;;;;;;;2.95;2.75;;;23.20;99.90;;;;;;5019367;28;20207;-74
2023/08/13 00:06:33;;;;;;;2.60;2.40;;;23.20;99.90;;;;;;5020050;28;20233;-75
2023/08/13 00:09:04;;;;;;;3.22;3.03;;;23.20;99.90;;;;;;5024680;28;20207;-74
2023/08/13 00:11:31;;;;;;;3.35;2.63;;;23.30;99.90;;;;;;5024088;28;20253;-74
2023/08/13 00:14:00;;;;;;;2.67;2.47;;;23.20;99.90;;;;;;5022873;28;20287;-74
2023/08/13 00:16:28;;;;;;;2.90;2.70;;;23.20;99.90;;;;;;5021823;28;20320;-74
2023/08/13 00:18:55;;;;;;;2.58;2.40;;;23.10;99.90;;;;;;5021573;28;20227;-76
2023/08/13 00:21:22;;;;;;;2.97;2.78;;;23.00;99.90;;;;;;5022361;28;20269;-77
2023/08/13 00:23:50;;;;;;;2.60;2.40;;;23.00;99.90;;;;;;5016727;28;20200;-76
2023/08/13 00:26:17;;;;;;;2.70;2.50;;;22.90;99.90;;;;;;5020424;28;20291;-74
2023/08/13 00:28:45;;;;;;;2.72;2.53;;;22.90;99.90;;;;;;5026342;28;20736;-74
2023/08/13 00:31:14;;;;;;;2.97;2.65;;;22.90;99.90;;;;;;5025746;28;20873;-74
2023/08/13 00:33:41;;;;;;;2.88;2.67;;;22.90;99.90;;;;;;5020620;28;20269;-74
2023/08/13 00:36:08;;;;;;;2.65;2.45;;;22.90;99.90;;;;;;5023435;28;20223;-74
2023/08/13 00:38:35;;;;;;;2.67;2.47;;;22.90;99.90;;;;;;5023832;28;20965;-74
2023/08/13 00:41:02;;;;;;;3.45;3.00;;;23.00;99.90;;;;;;5022597;28;20213;-74
2023/08/13 00:43:29;;;;;;;3.33;3.13;;;23.00;99.90;;;;;;5029359;28;20239;-74
2023/08/13 00:45:56;;;;;;;2.97;2.78;;;23.00;99.90;;;;;;5024359;28;20708;-74
2023/08/13 00:48:25;;;;;;;4.07;2.80;;;22.90;99.90;;;;;;5022368;28;20755;-74
2023/08/13 00:50:52;;;;;;;2.70;2.50;;;22.90;99.90;;;;;;5026053;28;20212;-74
2023/08/13 00:53:20;;;;;;;2.95;2.75;;;22.90;99.90;;;;;;5025377;28;20285;-74
2023/08/13 00:55:47;;;;;;;2.90;2.70;;;22.90;99.90;;;;;;5029026;28;20231;-74
2023/08/13 00:58:15;;;;;;;2.50;2.40;;;22.90;99.90;;;;;;5028122;28;20318;-74
2023/08/13 01:00:42;;;;;;;2.95;2.60;;;22.80;99.90;;;;;;5022745;28;20205;-75
2023/08/13 01:03:10;;;;;;;2.30;2.20;;;22.80;99.90;;;;;;5026493;28;20230;-75
2023/08/13 01:05:46;;;;;;;2.63;2.42;;;22.70;99.90;;;;;;5025058;28;20199;-75
2023/08/13 01:08:22;;;;;;;3.65;2.95;;;22.70;99.90;;;;;;5022744;28;20215;-75
2023/08/13 01:10:58;;;;;;;3.72;3.15;;;22.60;99.90;;;;;;5025891;28;20676;-75
2023/08/13 01:13:33;;;;;;;2.85;2.65;;;22.60;99.90;;;;;;5023327;28;20487;-76
2023/08/13 01:16:00;;;;;;;2.70;2.50;;;22.60;99.90;;;;;;5020065;28;20304;-75
2023/08/13 01:18:29;;;;;;;3.08;2.88;;;22.50;99.90;;;;;;5016536;28;20314;-74
2023/08/13 01:20:58;;;;;;;2.60;2.40;;;22.60;99.90;;;;;;5023786;28;20283;-74
2023/08/13 01:23:27;;;;;;;2.55;2.30;;;22.50;99.90;;;;;;5024679;28;20204;-74
2023/08/13 01:25:59;;;;;;;3.03;2.83;;;22.50;99.90;;;;;;5024474;28;20245;-74
2023/08/13 01:28:35;;;;;;;2.80;2.60;;;22.50;99.90;;;;;;5021569;28;20215;-74
2023/08/13 01:31:09;;;;;;;2.80;2.60;;;22.50;99.90;;;;;;5021575;28;20281;-74
2023/08/13 01:33:37;;;;;;;3.00;2.80;;;22.60;99.90;;;;;;5026021;28;20203;-74
2023/08/13 01:36:06;;;;;;;2.30;2.10;;;22.70;99.90;;;;;;5019121;28;20243;-74
2023/08/13 01:38:35;;;;;;;2.60;2.40;;;22.70;99.90;;;;;;5023178;28;20966;-74
2023/08/13 01:41:03;;;;;;;2.42;2.33;;;22.60;99.90;;;;;;5018254;28;20235;-74
2023/08/13 01:43:31;;;;;;;2.30;2.20;;;22.60;99.90;;;;;;5018944;28;20728;-74
2023/08/13 01:46:01;;;;;;;2.22;2.03;;;22.60;99.90;;;;;;5021405;28;20229;-74
2023/08/13 01:48:28;;;;;;;2.67;2.47;;;22.50;99.90;;;;;;5022260;28;20231;-74
2023/08/13 01:50:55;;;;;;;2.97;2.70;;;22.50;99.90;;;;;;5019705;28;20227;-74
2023/08/13 01:53:22;;;;;;;2.40;2.20;;;22.50;99.90;;;;;;5018893;28;20924;-74
2023/08/13 01:55:51;;;;;;;2.78;2.58;;;22.50;99.90;;;;;;5020574;28;20203;-74
2023/08/13 01:58:18;;;;;;;2.60;2.40;;;22.40;99.90;;;;;;5021711;28;20254;-74
2023/08/13 02:00:45;;;;;;;2.70;2.50;;;22.40;99.90;;;;;;5024498;28;20288;-75
2023/08/13 02:03:14;;;;;;;2.78;2.58;;;22.40;99.90;;;;;;5019888;28;20249;-74
2023/08/13 02:05:41;;;;;;;2.30;2.20;;;22.40;99.90;;;;;;5027686;28;20204;-74
2023/08/13 02:08:08;;;;;;;2.63;2.42;;;22.30;99.90;;;;;;5022413;28;20251;-74
2023/08/13 02:10:35;;;;;;;2.22;2.13;;;22.30;99.90;;;;;;5027492;28;20677;-74
2023/08/13 02:13:05;;;;;;;2.75;2.55;;;22.20;99.90;;;;;;5023169;28;20203;-74
2023/08/13 02:15:32;;;;;;;2.30;2.20;;;22.20;99.90;;;;;;5020420;28;20223;-74
2023/08/13 02:17:59;;;;;;;2.80;2.60;;;22.30;99.90;;;;;;5019761;28;20246;-74
2023/08/13 02:20:26;;;;;;;2.90;2.70;;;22.30;99.90;;;;;;5018732;28;20288;-74
2023/08/13 02:22:53;;;;;;;2.80;2.60;;;22.30;99.90;;;;;;5022031;28;20223;-74
2023/08/13 02:25:20;;;;;;;2.60;2.40;;;22.20;99.90;;;;;;5018319;28;20200;-74
2023/08/13 02:27:47;;;;;;;2.78;2.58;;;22.20;99.90;;;;;;5020483;28;20230;-74
2023/08/13 02:30:17;;;;;;;2.35;2.15;;;22.20;99.90;;;;;;5023099;28;20214;-73
2023/08/13 02:32:44;;;;;;;2.50;2.30;;;22.20;99.90;;;;;;5021630;28;20216;-74
2023/08/13 02:35:11;;;;;;;2.67;2.47;;;22.20;99.90;;;;;;4991772;28;20204;-73
2023/08/13 02:37:38;;;;;;;2.90;2.70;;;22.10;99.90;;;;;;5023263;28;20220;-74
2023/08/13 02:40:10;;;;;;;3.13;2.92;;;22.10;99.90;;;;;;5022643;28;20200;-74
2023/08/13 02:42:37;;;;;;;2.60;2.40;;;22.20;99.90;;;;;;5023117;28;20880;-74
2023/08/13 02:45:04;;;;;;;2.38;2.20;;;22.20;99.90;;;;;;5022319;28;20223;-74
2023/08/13 02:47:33;;;;;;;2.72;2.53;;;22.10;99.90;;;;;;5021834;28;20255;-73
2023/08/13 02:50:00;;;;;;;2.80;2.60;;;22.10;99.90;;;;;;5021601;28;20200;-74
2023/08/13 02:52:27;;;;;;;2.80;2.60;;;22.00;99.90;;;;;;5021679;28;20287;-74
2023/08/13 02:54:54;;;;;;;2.45;2.25;;;22.00;99.90;;;;;;5023014;28;20659;-73
2023/08/13 02:57:21;;;;;;;2.72;2.53;;;22.00;99.90;;;;;;5019903;28;20220;-75
2023/08/13 02:59:48;;;;;;;2.42;2.22;;;22.00;99.90;;;;;;5021081;28;20199;-75
2023/08/13 03:02:16;;;;;;;2.58;2.38;;;22.00;99.90;;;;;;5021366;28;20296;-75
2023/08/13 03:04:45;;;;;;;2.90;2.70;;;22.00;99.90;;;;;;5019774;28;20214;-75
2023/08/13 03:07:12;;;;;;;2.88;2.65;;;21.90;99.90;;;;;;5018965;28;20230;-75
2023/08/13 03:09:39;;;;;;;2.65;2.45;;;21.90;99.90;;;;;;5021368;28;20239;-73
2023/08/13 03:12:07;;;;;;;3.05;2.50;;;21.90;99.90;;;;;;5022103;28;20228;-73
2023/08/13 03:14:35;;;;;;;2.60;2.40;;;21.90;99.90;;;;;;5018413;28;20232;-73
2023/08/13 03:17:02;;;;;;;2.22;2.13;;;21.90;99.90;;;;;;5024214;28;20223;-73
2023/08/13 03:19:29;;;;;;;2.53;2.33;;;21.80;99.90;;;;;;5020451;28;20619;-74
2023/08/13 03:21:57;;;;;;;3.38;2.40;;;21.80;99.90;;;;;;5020708;28;20206;-74
2023/08/13 03:24:24;;;;;;;2.40;2.20;;;21.70;99.90;;;;;;5022621;28;20234;-73
2023/08/13 03:26:51;;;;;;;2.78;2.58;;;21.80;99.90;;;;;;5020967;28;20250;-73
2023/08/13 03:29:18;;;;;;;2.63;2.53;;;21.70;99.90;;;;;;5021933;28;20801;-73
2023/08/13 03:31:47;;;;;;;2.30;2.20;;;21.70;99.90;;;;;;5019440;28;20207;-73
2023/08/13 03:34:14;;;;;;;2.63;2.42;;;21.70;99.90;;;;;;5017960;28;20204;-73
2023/08/13 03:36:41;;;;;;;2.42;2.22;;;21.70;99.90;;;;;;5024270;28;20283;-75
2023/08/13 03:39:09;;;;;;;2.50;2.30;;;21.70;99.90;;;;;;5013747;28;20221;-74
2023/08/13 03:41:36;;;;;;;2.50;2.30;;;21.60;99.90;;;;;;5017416;28;20697;-75
2023/08/13 03:44:04;;;;;;;2.45;2.25;;;21.70;99.90;;;;;;5023284;28;20235;-74
2023/08/13 03:46:31;;;;;;;2.38;2.28;;;21.70;99.90;;;;;;5017949;28;20192;-75
2023/08/13 03:48:59;;;;;;;2.90;2.70;;;21.60;99.90;;;;;;5019520;28;20258;-75
2023/08/13 03:51:26;;;;;;;2.83;2.35;;;21.60;99.90;;;;;;5017804;28;20661;-75
2023/08/13 03:53:53;;;;;;;2.10;2.00;;;21.60;99.90;;;;;;5022228;28;20879;-75
2023/08/13 03:56:23;;;;;;;2.72;2.53;;;21.70;99.90;;;;;;5018785;28;20249;-75
2023/08/13 03:58:50;;;;;;;2.80;2.60;;;21.60;99.90;;;;;;5022167;28;20243;-75
2023/08/13 04:01:17;;;;;;;2.88;2.65;;;21.60;99.90;;;;;;5017394;28;20277;-75
2023/08/13 04:03:45;;;;;;;2.40;2.30;;;21.60;99.90;;;;;;5024202;28;20211;-75
2023/08/13 04:06:14;;;;;;;2.35;2.25;;;21.60;99.90;;;;;;5019659;28;20219;-74
2023/08/13 04:08:41;;;;;;;2.65;2.45;;;21.50;99.90;;;;;;5023299;28;20897;-75
2023/08/13 04:11:08;;;;;;;2.67;2.47;;;21.50;99.90;;;;;;5017978;28;20277;-75
2023/08/13 04:13:37;;;;;;;2.53;2.42;;;21.50;99.90;;;;;;5023133;28;20278;-75
2023/08/13 04:16:04;;;;;;;2.60;2.40;;;21.50;99.90;;;;;;5018481;28;20377;-75
2023/08/13 04:18:31;;;;;;;2.42;2.30;;;21.50;99.90;;;;;;5016591;28;20681;-75
2023/08/13 04:20:58;;;;;;;2.38;2.28;;;21.40;99.90;;;;;;5021534;28;20199;-75
2023/08/13 04:23:26;;;;;;;2.40;2.20;;;21.50;99.90;;;;;;5018209;28;20223;-74
2023/08/13 04:25:53;;;;;;;2.35;2.25;;;21.50;99.90;;;;;;5016821;28;20223;-74
2023/08/13 04:28:20;;;;;;;2.45;2.35;;;21.60;99.90;;;;;;5016277;28;20239;-74
2023/08/13 04:30:48;;;;;;;2.72;2.53;;;21.60;99.90;;;;;;5018328;28;20207;-74
2023/08/13 04:33:15;;;;;;;2.58;2.38;;;21.60;99.90;;;;;;5023682;28;20555;-74
2023/08/13 04:35:42;;;;;;;2.55;2.35;;;21.60;99.90;;;;;;5021032;28;20205;-74
2023/08/13 04:38:10;;;;;;;2.55;2.30;;;21.60;99.90;;;;;;5023463;28;20286;-74
2023/08/13 04:40:36;;;;;;;2.90;2.70;;;21.60;99.90;;;;;;5024690;28;20253;-74
2023/08/13 04:43:04;;;;;;;2.53;2.33;;;21.70;99.90;;;;;;5019540;28;20290;-74
2023/08/13 04:45:31;;;;;;;2.22;2.13;;;21.70;99.90;;;;;;5020871;28;20640;-74
2023/08/13 04:48:00;;;;;;;2.58;2.38;;;21.60;99.90;;;;;;5020724;28;20216;-75
2023/08/13 04:50:27;;;;;;;2.30;2.10;;;21.60;99.90;;;;;;5018539;28;20274;-75
2023/08/13 04:52:54;;;;;;;3.58;2.70;;;21.60;99.90;;;;;;5022509;28;20238;-76
2023/08/13 04:55:22;;;;;;;2.70;2.50;;;21.70;99.90;;;;;;5019577;28;20207;-75
2023/08/13 04:57:50;;;;;;;2.60;2.40;;;21.80;99.90;;;;;;5017811;28;20325;-76
2023/08/13 05:00:17;;;;;;;2.30;2.20;;;21.90;99.90;;;;;;5016085;28;20243;-76
2023/08/13 05:02:44;;;;;;;2.70;2.50;;;22.00;99.90;;;;;;5021849;28;20732;-77
2023/08/13 05:05:13;;;;;;;2.40;2.20;;;22.20;99.90;;;;;;5018756;28;20296;-77
2023/08/13 05:07:40;;;;;;;2.47;2.30;;;22.40;99.90;;;;;;5022866;28;20220;-77
2023/08/13 05:10:08;;;;;;;2.65;2.38;;;22.50;99.90;;;;;;5021253;28;20291;-77
2023/08/13 05:12:35;;;;;;;2.40;2.20;;;22.50;99.90;;;;;;5016546;28;20295;-77
2023/08/13 05:15:03;;;;;;;2.50;2.30;;;22.50;99.90;;;;;;5024998;28;20322;-77
2023/08/13 05:17:30;;;;;;;2.35;2.25;;;22.50;99.90;;;;;;5024622;28;20858;-77
2023/08/13 05:19:57;;;;;;;3.15;2.20;;;22.70;99.90;;;;;;5022575;28;20215;-76
2023/08/13 05:22:25;;;;;;;2.50;2.30;;;22.80;99.90;;;;;;5024204;28;20246;-75
2023/08/13 05:24:52;;;;;;;2.47;2.28;;;22.80;99.90;;;;;;5024422;28;20266;-77
2023/08/13 05:27:19;;;;;;;3.20;2.22;;;22.80;99.90;;;;;;5021210;28;20258;-76
2023/08/13 05:29:46;;;;;;;2.70;2.50;;;23.00;99.90;;;;;;5022107;28;20283;-77
2023/08/13 05:32:13;;;;;;;2.28;1.90;;;23.00;99.90;;;;;;5021098;28;20232;-77
2023/08/13 05:34:40;;;;;;;2.55;2.35;;;23.00;99.90;;;;;;5023092;28;20204;-76
2023/08/13 05:37:08;;;;;;;2.00;1.90;;;23.20;99.90;;;;;;5022536;28;20314;-76
2023/08/13 05:39:36;;;;;;;2.67;2.47;;;23.40;99.90;;;;;;5021696;28;20228;-77
2023/08/13 05:42:05;;;;;;;2.55;2.35;;;23.60;99.90;;;;;;5022019;28;20696;-77
2023/08/13 05:44:32;;;;;;;2.70;2.22;;;23.70;99.90;;;;;;5018681;28;20870;-77
2023/08/13 05:46:59;;;;;;;2.17;2.08;;;23.70;99.90;;;;;;5023589;28;20774;-77
2023/08/13 05:49:26;;;;;;;2.80;2.55;;;23.70;99.90;;;;;;5026614;28;20254;-77
2023/08/13 05:51:53;;;;;;;2.60;2.40;;;23.90;99.90;;;;;;5024172;28;20662;-77
2023/08/13 05:54:21;;;;;;;2.70;2.05;;;23.90;99.90;;;;;;5024465;28;20212;-75
2023/08/13 05:56:50;;;;;;;2.90;2.70;;;23.80;99.90;;;;;;5027130;28;20227;-77
2023/08/13 05:59:16;;;;;;;2.50;2.30;;;23.80;99.90;;;;;;5018798;28;20602;-77
2023/08/13 06:01:44;;;;;;;3.58;2.50;;;23.90;99.90;;;;;;5018240;28;20920;-77
2023/08/13 06:04:11;;;;;;;2.50;2.30;;;24.10;99.90;;;;;;5023037;28;20713;-76
2023/08/13 06:06:38;;;;;;;2.50;2.30;;;24.10;99.90;;;;;;5023976;28;20239;-76
2023/08/13 06:09:06;;;;;;;2.60;2.10;;;24.20;99.90;;;;;;5025212;28;20224;-74
2023/08/13 06:11:33;;;;;;;2.88;2.63;;;24.20;99.90;;;;;;5022253;28;20204;-76
2023/08/13 06:14:02;;;;;;;2.97;2.53;;;24.20;99.90;;;;;;5025002;28;20247;-74
2023/08/13 06:16:29;;;;;;;2.72;2.53;;;24.10;99.90;;;;;;5016766;28;20196;-76
2023/08/13 06:18:56;;;;;;;3.00;2.80;;;24.00;99.90;;;;;;5022831;28;20311;-76
2023/08/13 06:21:23;;;;;;;2.60;2.40;;;23.90;99.90;;;;;;5017353;28;20232;-75
2023/08/13 06:23:50;;;;;;;2.58;2.38;;;24.00;99.90;;;;;;5022066;28;20285;-76
2023/08/13 06:26:17;;;;;;;2.72;2.53;;;23.90;99.90;;;;;;5021844;28;20214;-77
2023/08/13 06:28:44;;;;;;;2.60;2.40;;;23.80;99.90;;;;;;5023186;28;20246;-75
2023/08/13 06:31:13;;;;;;;2.95;2.55;;;23.70;99.90;;;;;;5021452;28;20298;-75
2023/08/13 06:33:40;;;;;;;3.78;2.53;;;23.70;99.90;;;;;;5021449;28;20215;-75
2023/08/13 06:36:07;;;;;;;2.30;2.10;;;23.70;99.90;;;;;;5020993;28;20200;-75
2023/08/13 06:38:36;;;;;;;2.50;2.30;;;23.80;99.90;;;;;;5026124;28;20305;-75
2023/08/13 06:41:05;;;;;;;2.72;2.50;;;23.90;99.90;;;;;;5020413;28;20199;-75
2023/08/13 06:43:34;;;;;;;3.28;2.78;;;24.00;99.90;;;;;;5019478;28;20208;-75
2023/08/13 06:46:01;;;;;;;2.95;2.67;;;24.10;99.90;;;;;;5005502;28;20225;-76
2023/08/13 06:48:33;;;;;;;2.90;2.70;;;24.10;99.90;;;;;;5021195;28;20219;-76
2023/08/13 06:51:01;;;;;;;2.78;2.30;;;24.40;99.90;;;;;;5021803;28;20312;-75
2023/08/13 06:53:27;;;;;;;2.63;2.40;;;24.60;99.90;;;;;;5016298;28;20326;-75
2023/08/13 06:55:55;;;;;;;2.60;2.40;;;24.70;99.90;;;;;;5019509;28;20217;-74
2023/08/13 06:58:23;;;;;;;2.60;2.40;;;24.70;99.90;;;;;;5041723;28;20223;-74
2023/08/13 07:00:52;;;;;;;2.65;2.28;;;24.90;99.90;;;;;;5024812;28;20620;-74
2023/08/13 07:03:19;;;;;;;3.33;2.50;;;25.00;99.90;;;;;;5021335;28;20231;-74
2023/08/13 07:05:48;;;;;;;2.85;2.50;;;25.00;99.90;;;;;;5021670;28;20196;-74
2023/08/13 07:08:15;;;;;;;2.55;2.35;;;25.00;99.90;;;;;;5023351;28;20278;-74
2023/08/13 07:10:42;;;;;;;3.97;2.72;;;24.90;99.90;;;;;;5020231;28;20791;-74
2023/08/13 07:13:09;;;;;;;4.05;2.30;;;24.90;99.90;;;;;;5019583;28;20211;-74
2023/08/13 07:15:36;;;;;;;2.80;2.60;;;25.10;99.90;;;;;;5024901;28;20231;-75
2023/08/13 07:18:03;;;;;;;2.55;2.35;;;25.10;99.90;;;;;;5018919;28;20728;-75
2023/08/13 07:20:32;;;;;;;2.50;2.30;;;25.30;99.90;;;;;;5017133;28;20224;-75
2023/08/13 07:23:01;;;;;;;2.63;2.42;;;25.40;99.90;;;;;;5015374;28;20273;-75
2023/08/13 07:25:28;;;;;;;2.33;2.20;;;25.40;99.90;;;;;;5020276;28;20257;-75
2023/08/13 07:27:55;;;;;;;2.70;2.38;;;25.40;99.90;;;;;;5021627;28;20230;-75
2023/08/13 07:30:22;;;;;;;2.80;2.60;;;25.60;99.90;;;;;;5022972;28;20223;-74
2023/08/13 07:32:49;;;;;;;2.80;2.60;;;25.60;99.90;;;;;;5022097;28;20199;-75
2023/08/13 07:35:16;;;;;;;2.95;2.65;;;25.50;99.90;;;;;;5016669;28;20286;-75
2023/08/13 07:37:43;;;;;;;3.15;2.85;;;25.50;99.90;;;;;;5017321;28;20223;-75
2023/08/13 07:40:13;;;;;;;2.70;2.50;;;25.60;99.90;;;;;;5028312;28;20222;-75
2023/08/13 07:42:40;;;;;;;2.67;2.47;;;25.70;99.90;;;;;;5016856;28;20230;-74
2023/08/13 07:45:08;;;;;;;2.83;2.58;;;25.70;99.90;;;;;;5019212;28;20817;-74
2023/08/13 07:47:36;;;;;;;2.78;2.47;;;25.90;99.90;;;;;;5017594;28;20784;-75
2023/08/13 07:50:05;;;;;;;3.08;2.80;;;26.00;99.90;;;;;;5023648;28;20204;-75
2023/08/13 07:52:34;;;;;;;3.30;2.95;;;26.20;99.90;;;;;;5018520;28;20696;-75
2023/08/13 07:55:01;;;;;;;3.03;2.78;;;26.20;99.90;;;;;;5021808;28;20230;-75
2023/08/13 07:57:30;;;;;;;4.32;2.60;;;26.30;99.90;;;;;;5021784;28;20254;-73
2023/08/13 07:59:57;;;;;;;2.47;2.30;;;26.50;99.90;;;;;;5021563;28;22033;-76
2023/08/13 08:02:24;;;;;;;2.85;2.60;;;26.60;99.90;;;;;;5018316;28;20235;-76
2023/08/13 08:04:51;;;;;;;2.95;2.75;;;26.60;99.90;;;;;;5027193;28;20266;-76
2023/08/13 08:07:19;;;;;;;2.75;2.55;;;26.60;99.90;;;;;;5017274;28;20227;-76
2023/08/13 08:09:46;;;;;;;3.38;3.00;;;26.70;99.90;;;;;;5018414;28;20251;-76
2023/08/13 08:12:14;;;;;;;2.95;2.72;;;26.80;99.90;;;;;;5026887;28;20693;-76
2023/08/13 08:14:42;;;;;;;3.35;2.97;;;26.90;99.90;;;;;;5019397;28;20207;-76
2023/08/13 08:17:10;;;;;;;2.88;2.60;;;27.10;99.90;;;;;;5016885;28;20314;-76
2023/08/13 08:19:37;;;;;;;2.35;2.22;;;27.30;99.90;;;;;;5016531;28;20219;-77
2023/08/13 08:22:04;;;;;;;2.40;2.20;;;27.60;99.90;;;;;;5019441;28;20275;-77
2023/08/13 08:24:32;;;;;;;3.58;3.13;;;27.90;99.90;;;;;;5018538;28;20206;-76
2023/08/13 08:26:59;;;;;;;2.95;2.75;;;27.70;99.90;;;;;;5021145;28;20278;-75
2023/08/13 08:29:26;;;;;;;3.38;3.00;;;27.40;99.90;;;;;;5016920;28;20200;-75
2023/08/13 08:31:55;;;;;;;2.80;2.60;;;27.30;99.90;;;;;;5022455;28;20235;-75
2023/08/13 08:34:22;;;;;;;2.67;2.47;;;27.30;99.90;;;;;;5023594;28;20203;-75
2023/08/13 08:36:49;;;;;;;3.15;2.85;;;27.40;99.90;;;;;;5022210;28;20302;-75
2023/08/13 08:39:16;;;;;;;3.05;2.63;;;27.40;99.90;;;;;;5016106;28;20292;-75
2023/08/13 08:41:47;;;;;;;4.18;3.15;;;27.40;99.90;;;;;;5020966;28;20693;-75
2023/08/13 08:44:22;;;;;;;4.00;3.00;;;27.50;99.90;;;;;;5017918;28;20319;-74
2023/08/13 08:46:50;;;;;;;3.60;3.10;;;27.80;99.90;;;;;;5020495;28;20276;-75
2023/08/13 08:49:21;;;;;;;3.20;2.90;;;28.00;99.90;;;;;;5023584;28;20731;-75
2023/08/13 08:51:49;;;;;;;3.00;2.70;;;27.90;99.90;;;;;;5020119;28;20208;-75
2023/08/13 08:54:16;;;;;;;2.80;2.60;;;27.80;99.90;;;;;;5024141;28;20696;-75
2023/08/13 08:56:43;;;;;;;3.40;3.13;;;27.90;99.90;;;;;;5020042;28;20227;-74
2023/08/13 08:59:10;;;;;;;3.40;3.10;;;28.00;99.90;;;;;;5021512;28;20286;-75
2023/08/13 09:01:37;;;;;;;4.47;2.97;;;28.00;99.90;;;;;;5019116;28;20203;-75
2023/08/13 09:04:05;;;;;;;2.85;2.63;;;27.90;99.90;;;;;;5023099;28;20227;-75
2023/08/13 09:06:57;;;;;;;4.43;3.10;;;28.00;99.90;;;;;;5022470;28;20232;-75
2023/08/13 09:09:25;;;;;;;3.08;2.85;;;28.40;99.90;;;;;;5025169;28;20201;-74
2023/08/13 09:11:54;;;;;;;3.25;3.00;;;28.50;99.90;;;;;;5019832;28;20265;-75
2023/08/13 09:14:22;;;;;;;3.60;3.10;;;28.70;99.90;;;;;;5021249;28;20235;-76
2023/08/13 09:16:52;;;;;;;3.08;2.50;;;28.60;99.90;;;;;;5020315;28;20339;-75
2023/08/13 09:19:20;;;;;;;2.75;2.55;;;28.60;99.90;;;;;;5020735;28;20302;-75
2023/08/13 09:21:51;;;;;;;3.22;2.92;;;28.80;99.90;;;;;;5020587;28;20212;-75
2023/08/13 09:24:19;;;;;;;3.55;2.78;;;29.10;99.90;;;;;;5025853;28;20203;-75
2023/08/13 09:26:47;;;;;;;3.25;2.95;;;29.20;99.90;;;;;;5019358;28;20705;-75
2023/08/13 09:29:14;;;;;;;3.25;2.63;;;29.00;99.90;;;;;;5023019;28;20673;-75
2023/08/13 09:31:42;;;;;;;2.95;2.70;;;28.90;99.90;;;;;;5022335;28;20645;-75
2023/08/13 09:34:09;;;;;;;2.60;2.40;;;29.00;99.90;;;;;;5022423;28;20262;-75
2023/08/13 09:36:36;;;;;;;3.08;2.88;;;29.20;99.90;;;;;;5022555;28;20327;-75
2023/08/13 09:39:03;;;;;;;2.90;2.67;;;29.30;99.90;;;;;;5024842;28;20205;-75
2023/08/13 09:41:33;;;;;;;3.10;2.90;;;29.30;99.90;;;;;;5020390;28;20232;-76
2023/08/13 09:44:08;;;;;;;3.20;2.92;;;29.30;99.90;;;;;;5019709;28;20680;-74
2023/08/13 09:46:36;;;;;;;3.28;2.97;;;29.40;99.90;;;;;;5022703;28;20208;-76
2023/08/13 09:49:09;;;;;;;2.70;2.50;;;29.30;99.90;;;;;;5020801;28;20681;-74
2023/08/13 09:51:39;;;;;;;3.00;2.70;;;29.40;99.90;;;;;;5023568;28;20718;-75
2023/08/13 09:54:13;;;;;;;3.03;2.70;;;29.50;99.90;;;;;;5019862;28;20234;-76
2023/08/13 09:56:45;;;;;;;2.70;2.50;;;29.60;99.90;;;;;;5022800;28;20204;-75
2023/08/13 09:59:13;;;;;;;3.10;2.80;;;29.80;99.90;;;;;;5019400;28;20210;-75
2023/08/13 10:01:41;;;;;;;3.40;3.10;;;29.90;99.90;;;;;;5002963;28;20216;-76
2023/08/13 10:04:09;;;;;;;2.72;2.53;;;30.00;99.90;;;;;;5024052;28;20757;-75
2023/08/13 10:06:37;;;;;;;3.58;2.63;;;30.00;99.90;;;;;;5021092;28;20307;-76
2023/08/13 10:09:06;;;;;;;3.13;2.83;;;30.20;99.90;;;;;;5020802;28;20208;-78
2023/08/13 10:11:33;;;;;;;3.20;2.97;;;30.30;99.90;;;;;;5021944;28;20298;-76
2023/08/13 10:14:02;;;;;;;3.20;3.00;;;30.30;99.90;;;;;;5023989;28;20605;-75
2023/08/13 10:16:30;;;;;;;2.42;2.33;;;30.30;99.90;;;;;;5024078;28;20239;-75
2023/08/13 10:18:59;;;;;;;2.63;2.42;;;30.30;99.90;;;;;;5023728;28;20338;-75
2023/08/13 10:21:37;;;;;;;2.60;2.40;;;30.50;99.90;;;;;;5024142;28;20740;-75
2023/08/13 10:24:06;;;;;;;2.40;2.30;;;30.70;99.90;;;;;;5017914;28;20586;-71
2023/08/13 10:26:34;;;;;;;3.10;2.63;;;30.80;99.90;;;;;;5021374;28;20291;-75
2023/08/13 10:29:15;;;;;;;2.63;2.42;;;30.80;99.90;;;;;;5023106;28;21081;-75
2023/08/13 10:31:48;;;;;;;3.67;2.80;;;30.80;99.90;;;;;;5019798;28;21561;-75
2023/08/13 10:34:17;;;;;;;2.78;2.58;;;30.90;99.90;;;;;;5021687;28;20214;-74
2023/08/13 10:36:51;;;;;;;2.90;2.60;;;31.10;99.90;;;;;;5024880;28;20199;-75
2023/08/13 10:39:41;;;;;;;2.80;2.60;;;31.00;99.90;;;;;;5023769;28;20242;-74
2023/08/13 10:42:41;;;;;;;2.80;2.60;;;31.10;99.90;;;;;;5018409;28;20254;-75
2023/08/13 10:45:11;;;;;;;2.83;2.63;;;31.30;99.90;;;;;;5027328;28;20206;-75
2023/08/13 10:47:39;;;;;;;2.85;2.65;;;31.40;99.90;;;;;;5021993;28;20223;-75
2023/08/13 10:50:07;;;;;;;2.80;2.60;;;31.50;99.90;;;;;;5022207;28;20235;-75
2023/08/13 10:52:34;;;;;;;3.13;2.90;;;31.40;99.90;;;;;;5022908;28;20204;-76
2023/08/13 10:55:01;;;;;;;3.65;2.60;;;31.30;99.90;;;;;;5021508;28;20201;-75
2023/08/13 10:57:29;;;;;;;2.90;2.70;;;31.20;99.90;;;;;;5024992;28;20274;-75
2023/08/13 10:59:58;;;;;;;2.83;2.63;;;31.00;99.90;;;;;;5023771;28;20224;-75
2023/08/13 11:02:31;;;;;;;2.92;2.72;;;31.00;99.90;;;;;;5018876;28;20200;-75
2023/08/13 11:04:59;;;;;;;2.90;2.70;;;31.20;99.90;;;;;;5023569;28;20203;-75
2023/08/13 11:07:26;;;;;;;2.72;2.53;;;31.40;99.90;;;;;;5020880;28;20219;-75
2023/08/13 11:09:54;;;;;;;3.65;2.58;;;31.50;99.90;;;;;;5023037;28;20677;-75
2023/08/13 11:12:21;;;;;;;2.85;2.65;;;31.60;99.90;;;;;;5019003;28;20531;-75
2023/08/13 11:14:48;;;;;;;2.63;2.42;;;31.60;99.90;;;;;;5019877;28;20236;-75
2023/08/13 11:17:15;;;;;;;2.72;2.30;;;31.60;99.90;;;;;;5019322;28;20281;-76
2023/08/13 11:19:44;;;;;;;3.00;2.80;;;31.70;99.90;;;;;;5023353;28;20200;-75
2023/08/13 11:22:11;;;;;;;2.67;2.47;;;31.70;99.90;;;;;;5026543;28;20207;-75
2023/08/13 11:24:38;;;;;;;2.70;2.50;;;31.70;99.90;;;;;;5023997;28;20291;-76
2023/08/13 11:27:05;;;;;;;2.70;2.50;;;31.80;99.90;;;;;;5024701;28;20227;-75
2023/08/13 11:29:34;;;;;;;3.28;2.50;;;31.90;99.90;;;;;;5019897;28;20184;-75
2023/08/13 11:32:01;;;;;;;2.88;2.67;;;31.90;99.90;;;;;;5023004;28;20204;-75
2023/08/13 11:34:28;;;;;;;2.70;2.50;;;31.60;99.90;;;;;;5027079;28;20199;-75
2023/08/13 11:36:56;;;;;;;2.33;2.20;;;31.60;99.90;;;;;;5018809;28;20285;-75
2023/08/13 11:39:24;;;;;;;2.67;2.58;;;31.90;99.90;;;;;;5020874;28;20246;-75
2023/08/13 11:41:52;;;;;;;2.58;2.30;;;32.00;99.90;;;;;;5020266;28;20760;-75
2023/08/13 11:44:20;;;;;;;2.70;2.50;;;32.00;99.90;;;;;;5020488;28;20208;-75
2023/08/13 11:47:00;;;;;;;2.60;2.40;;;32.10;99.90;;;;;;5023329;28;20223;-75
2023/08/13 11:49:28;;;;;;;2.35;2.15;;;32.20;99.90;;;;;;5018454;28;20196;-76
2023/08/13 11:51:58;;;;;;;2.28;2.13;;;32.20;99.90;;;;;;5019312;28;20208;-75
2023/08/13 11:54:25;;;;;;;2.10;2.00;;;32.20;99.90;;;;;;5019288;28;20212;-76
2023/08/13 11:56:54;;;;;;;2.53;2.33;;;32.20;99.90;;;;;;5023228;28;20259;-75
2023/08/13 11:59:25;;;;;;;3.22;2.95;;;32.20;99.90;;;;;;5022567;28;20222;-75
2023/08/13 12:01:55;;;;;;;2.85;2.55;;;32.30;99.90;;;;;;5017073;28;20222;-75
2023/08/13 12:04:23;;;;;;;3.25;2.75;;;32.30;99.90;;;;;;5018474;28;20207;-75
2023/08/13 12:06:52;;;;;;;2.90;2.65;;;32.10;99.90;;;;;;5022572;28;20219;-75
2023/08/13 12:09:21;;;;;;;2.95;2.75;;;31.90;99.90;;;;;;5019024;28;20222;-75
2023/08/13 12:11:48;;;;;;;2.83;2.45;;;31.70;99.90;;;;;;5019055;28;20207;-75
2023/08/13 12:14:15;;;;;;;3.00;2.70;;;31.60;99.90;;;;;;5017172;28;20216;-75
2023/08/13 12:16:42;;;;;;;7.72;2.75;;;31.80;99.90;;;;;;5015784;28;20224;-75
2023/08/13 12:19:09;;;;;;;2.63;2.47;;;31.70;99.90;;;;;;5022097;28;20231;-75
2023/08/13 12:21:36;;;;;;;2.65;2.50;;;31.90;99.90;;;;;;5025735;28;20216;-75
2023/08/13 12:24:05;;;;;;;3.10;2.90;;;31.90;99.90;;;;;;5029137;28;20207;-75
2023/08/13 12:26:34;;;;;;;2.90;2.70;;;32.00;99.90;;;;;;5024098;28;20708;-74
2023/08/13 12:29:02;;;;;;;3.20;2.88;;;32.10;99.90;;;;;;5026870;28;20211;-74
2023/08/13 12:31:30;;;;;;;5.40;2.92;;;32.20;99.90;;;;;;5031668;28;20596;-75
2023/08/13 12:33:57;;;;;;;3.55;2.80;;;32.20;99.90;;;;;;5032943;28;20214;-74
2023/08/13 12:36:24;;;;;;;2.78;2.55;;;32.20;99.90;;;;;;5026325;28;20872;-74
2023/08/13 12:38:51;;;;;;;2.33;2.22;;;32.20;99.90;;;;;;5024474;28;20290;-75
2023/08/13 12:41:18;;;;;;;2.90;2.55;;;32.40;99.90;;;;;;5029765;28;20720;-75
2023/08/13 12:43:48;;;;;;;3.22;2.92;;;32.50;99.90;;;;;;5027640;28;20235;-76
2023/08/13 12:46:15;;;;;;;2.90;2.70;;;32.70;99.90;;;;;;5025368;28;20226;-75
2023/08/13 12:48:42;;;;;;;2.72;2.53;;;32.60;99.90;;;;;;5026384;28;20673;-74
2023/08/13 12:51:09;;;;;;;2.83;2.58;;;32.70;99.90;;;;;;5024344;28;20282;-76
2023/08/13 12:53:36;;;;;;;2.40;2.30;;;32.80;99.90;;;;;;5023655;28;20212;-76